createdAt,value
2019-05-23T00:01:45.503Z,13.90
2019-05-23T00:04:21.071Z,13.93
2019-05-23T00:06:52.190Z,13.86
2019-05-23T00:09:23.898Z,13.91
2019-05-23T00:12:14.057Z,13.88
2019-05-23T00:14:51.969Z,13.91
2019-05-23T00:17:24.546Z,13.87
2019-05-23T00:19:56.360Z,13.92
2019-05-23T00:22:29.306Z,13.88
2019-05-23T00:25:00.911Z,13.86
2019-05-23T00:27:32.210Z,13.85
2019-05-23T00:30:04.478Z,13.84
2019-05-23T00:32:42.990Z,13.91
2019-05-23T00:35:15.142Z,13.87
2019-05-23T00:37:47.570Z,13.91
2019-05-23T00:40:19.816Z,13.96
2019-05-23T00:42:51.904Z,13.93
2019-05-23T00:45:24.216Z,13.94
2019-05-23T00:47:55.235Z,13.94
2019-05-23T00:50:26.546Z,13.97
2019-05-23T00:52:58.223Z,13.98
2019-05-23T00:55:29.049Z,13.94
2019-05-23T00:58:00.516Z,13.99
2019-05-23T01:00:32.628Z,14.03
2019-05-23T01:03:05.429Z,13.98
2019-05-23T01:05:36.883Z,13.98
2019-05-23T01:08:07.482Z,13.93
2019-05-23T01:10:39.750Z,13.94
2019-05-23T01:13:10.655Z,14.05
2019-05-23T01:15:41.969Z,13.95
2019-05-23T01:18:13.404Z,13.99
2019-05-23T01:21:01.142Z,14.03
2019-05-23T01:23:33.388Z,14.01
2019-05-23T01:26:04.702Z,13.98
2019-05-23T01:28:35.325Z,13.95
2019-05-23T01:31:26.375Z,13.94
2019-05-23T01:33:58.663Z,13.91
2019-05-23T01:36:29.956Z,13.92
2019-05-23T01:39:01.761Z,14.03
2019-05-23T01:41:32.357Z,13.90
2019-05-23T01:44:04.186Z,13.90
2019-05-23T01:46:38.518Z,13.93
2019-05-23T01:49:10.073Z,13.90
2019-05-23T01:51:40.762Z,13.87
2019-05-23T01:54:12.054Z,13.99
2019-05-23T01:56:44.712Z,13.97
2019-05-23T01:59:16.814Z,13.95
2019-05-23T02:01:47.506Z,13.90
2019-05-23T02:04:21.449Z,13.89
2019-05-23T02:06:52.251Z,13.88
2019-05-23T02:09:23.979Z,13.95
2019-05-23T02:11:56.675Z,13.95
2019-05-23T02:14:28.149Z,14.00
2019-05-23T02:17:01.191Z,13.91
2019-05-23T02:19:32.099Z,14.00
2019-05-23T02:22:04.502Z,13.90
2019-05-23T02:24:35.981Z,13.84
2019-05-23T02:27:10.055Z,13.90
2019-05-23T02:29:43.100Z,13.93
2019-05-23T02:32:16.251Z,13.98
2019-05-23T02:34:47.573Z,13.95
2019-05-23T02:37:20.184Z,13.94
2019-05-23T02:40:03.809Z,14.04
2019-05-23T02:42:39.457Z,14.08
2019-05-23T02:45:13.015Z,14.04
2019-05-23T02:47:52.223Z,14.00
2019-05-23T02:50:26.555Z,14.02
2019-05-23T02:52:59.090Z,13.99
2019-05-23T02:55:35.263Z,14.06
2019-05-23T02:58:20.907Z,14.18
2019-05-23T03:01:10.999Z,14.21
2019-05-23T03:03:45.768Z,14.02
2019-05-23T03:06:19.716Z,14.14
2019-05-23T03:08:52.461Z,14.28
2019-05-23T03:11:33.633Z,14.08
2019-05-23T03:14:05.922Z,14.12
2019-05-23T03:16:39.549Z,14.13
2019-05-23T03:19:23.681Z,14.08
2019-05-23T03:21:58.433Z,14.07
2019-05-23T03:24:29.826Z,14.09
2019-05-23T03:27:04.334Z,14.13
2019-05-23T03:29:36.034Z,14.25
2019-05-23T03:32:23.223Z,14.21
2019-05-23T03:34:56.296Z,14.23
2019-05-23T03:37:27.911Z,14.50
2019-05-23T03:40:00.446Z,14.45
2019-05-23T03:42:31.044Z,14.59
2019-05-23T03:45:03.542Z,14.49
2019-05-23T03:47:37.863Z,14.53
2019-05-23T03:50:12.410Z,14.62
2019-05-23T03:52:44.248Z,14.70
2019-05-23T03:55:16.464Z,14.76
2019-05-23T03:57:49.314Z,14.80
2019-05-23T04:00:21.947Z,14.71
2019-05-23T04:02:52.554Z,14.78
2019-05-23T04:05:24.580Z,15.19
2019-05-23T04:07:55.393Z,15.48
2019-05-23T04:10:26.925Z,15.72
2019-05-23T04:12:58.628Z,15.41
2019-05-23T04:15:29.601Z,15.28
2019-05-23T04:18:00.307Z,15.51
2019-05-23T04:20:31.858Z,15.77
2019-05-23T04:23:02.760Z,16.24
2019-05-23T04:25:34.786Z,16.14
2019-05-23T04:28:06.119Z,15.90
2019-05-23T04:30:36.947Z,16.04
2019-05-23T04:33:09.379Z,15.81
2019-05-23T04:35:40.386Z,15.88
2019-05-23T04:38:11.326Z,15.84
2019-05-23T04:40:43.218Z,15.94
2019-05-23T04:43:13.814Z,15.71
2019-05-23T04:45:48.901Z,15.52
2019-05-23T04:48:20.804Z,15.22
2019-05-23T04:50:59.710Z,15.67
2019-05-23T04:53:29.760Z,15.71
2019-05-23T04:56:02.192Z,16.32
2019-05-23T04:58:33.890Z,17.44
2019-05-23T05:01:06.317Z,18.54
2019-05-23T05:03:41.469Z,18.74
2019-05-23T05:06:15.141Z,19.07
2019-05-23T05:08:46.549Z,17.74
2019-05-23T05:11:17.460Z,18.50
2019-05-23T05:13:50.289Z,18.85
2019-05-23T05:16:22.764Z,18.94
2019-05-23T05:18:56.007Z,17.62
2019-05-23T05:21:29.121Z,17.36
2019-05-23T05:24:00.718Z,17.36
2019-05-23T05:26:33.618Z,17.59
2019-05-23T05:29:05.294Z,18.95
2019-05-23T05:31:36.941Z,19.33
2019-05-23T05:34:09.482Z,19.33
2019-05-23T05:36:43.765Z,18.63
2019-05-23T05:39:22.370Z,18.49
2019-05-23T05:41:54.699Z,17.79
2019-05-23T05:44:26.236Z,17.92
2019-05-23T05:46:57.163Z,17.86
2019-05-23T05:49:29.930Z,17.46
2019-05-23T05:52:02.223Z,17.36
2019-05-23T05:54:32.843Z,17.06
2019-05-23T05:57:10.239Z,17.00
2019-05-23T05:59:37.166Z,16.89
2019-05-23T06:02:11.595Z,17.25
2019-05-23T06:04:43.501Z,16.80
2019-05-23T06:07:16.126Z,16.71
2019-05-23T06:09:49.782Z,16.82
2019-05-23T06:12:22.553Z,16.77
2019-05-23T06:14:53.653Z,16.93
2019-05-23T06:17:24.394Z,17.80
2019-05-23T06:19:55.494Z,18.68
2019-05-23T06:22:28.455Z,19.28
2019-05-23T06:25:02.561Z,19.24
2019-05-23T06:27:34.781Z,18.71
2019-05-23T06:30:08.610Z,18.40
2019-05-23T06:32:39.578Z,17.83
2019-05-23T06:35:14.016Z,18.15
2019-05-23T06:37:46.045Z,19.25
2019-05-23T06:40:16.640Z,19.06
2019-05-23T06:42:50.920Z,18.72
2019-05-23T06:45:21.858Z,18.23
2019-05-23T06:47:52.862Z,18.03
2019-05-23T06:50:24.101Z,17.61
2019-05-23T06:52:54.721Z,17.65
2019-05-23T06:55:25.369Z,17.84
2019-05-23T06:57:55.943Z,18.34
2019-05-23T07:00:27.502Z,18.67
2019-05-23T07:02:58.340Z,18.21
2019-05-23T07:05:32.352Z,19.00
2019-05-23T07:08:05.429Z,19.07
2019-05-23T07:10:42.803Z,17.87
2019-05-23T07:13:13.982Z,17.55
2019-05-23T07:15:45.339Z,17.68
2019-05-23T07:18:16.617Z,18.36
2019-05-23T07:20:47.359Z,18.59
2019-05-23T07:23:18.966Z,18.55
2019-05-23T07:25:50.277Z,17.71
2019-05-23T07:28:21.043Z,17.46
2019-05-23T07:30:52.110Z,17.63
2019-05-23T07:33:23.987Z,18.26
2019-05-23T07:35:55.086Z,18.42
2019-05-23T07:38:25.757Z,18.40
2019-05-23T07:40:57.093Z,19.08
2019-05-23T07:43:28.110Z,19.29
2019-05-23T07:45:59.369Z,18.98
2019-05-23T07:48:31.562Z,18.81
2019-05-23T07:51:02.377Z,19.03
2019-05-23T07:53:44.172Z,18.98
2019-05-23T07:56:19.765Z,19.20
2019-05-23T07:58:50.363Z,19.34
2019-05-23T08:01:28.661Z,19.71
2019-05-23T08:04:00.125Z,19.18
2019-05-23T08:06:31.499Z,19.29
2019-05-23T08:09:02.188Z,20.03
2019-05-23T08:11:33.022Z,19.73
2019-05-23T08:14:03.982Z,19.64
2019-05-23T08:16:34.753Z,20.12
2019-05-23T08:19:05.745Z,20.44
2019-05-23T08:21:39.005Z,19.72
2019-05-23T08:24:11.390Z,19.52
2019-05-23T08:26:43.180Z,20.16
2019-05-23T08:29:26.646Z,19.83
2019-05-23T08:31:51.950Z,20.18
2019-05-23T08:34:39.990Z,19.53
2019-05-23T08:36:58.267Z,19.37
2019-05-23T08:39:30.916Z,20.35
2019-05-23T08:42:03.588Z,19.90
2019-05-23T08:44:34.219Z,19.86
2019-05-23T08:47:06.682Z,19.82
2019-05-23T08:49:37.619Z,20.38
2019-05-23T08:52:09.108Z,20.46
2019-05-23T08:54:39.903Z,20.46
2019-05-23T08:57:11.126Z,20.67
2019-05-23T08:59:44.071Z,20.64
2019-05-23T09:02:14.834Z,21.10
2019-05-23T09:05:03.365Z,21.71
2019-05-23T09:07:19.094Z,21.97
2019-05-23T09:09:50.613Z,21.73
2019-05-23T09:12:21.801Z,21.58
2019-05-23T09:14:53.010Z,21.33
2019-05-23T09:17:23.582Z,20.53
2019-05-23T09:19:55.300Z,21.68
2019-05-23T09:22:27.903Z,21.68
2019-05-23T09:24:58.614Z,22.73
2019-05-23T09:27:29.310Z,22.28
2019-05-23T09:30:02.146Z,22.80
2019-05-23T09:32:32.777Z,23.71
2019-05-23T09:35:19.725Z,22.10
2019-05-23T09:37:37.217Z,21.45
2019-05-23T09:40:08.222Z,21.45
2019-05-23T09:42:38.815Z,21.57
2019-05-23T09:45:09.750Z,19.95
2019-05-23T09:47:40.757Z,19.95
2019-05-23T09:50:16.021Z,19.85
2019-05-23T09:52:47.127Z,20.18
2019-05-23T09:55:19.029Z,19.82
2019-05-23T09:57:49.594Z,19.73
2019-05-23T10:00:23.516Z,19.21
2019-05-23T10:02:54.206Z,19.01
2019-05-23T10:05:41.959Z,18.95
2019-05-23T10:07:57.302Z,19.14
2019-05-23T10:10:30.106Z,18.78
2019-05-23T10:13:00.659Z,18.92
2019-05-23T10:15:40.554Z,18.89
2019-05-23T10:18:22.383Z,19.00
2019-05-23T10:20:53.169Z,19.08
2019-05-23T10:23:23.768Z,18.98
2019-05-23T10:25:54.367Z,19.06
2019-05-23T10:28:24.961Z,19.28
2019-05-23T10:30:55.565Z,19.46
2019-05-23T10:33:26.180Z,19.22
2019-05-23T10:36:00.734Z,19.31
2019-05-23T10:38:29.604Z,19.18
2019-05-23T10:41:00.761Z,19.40
2019-05-23T10:43:31.441Z,19.19
2019-05-23T10:46:02.154Z,19.39
2019-05-23T10:51:21.688Z,19.92
2019-05-23T10:53:52.507Z,19.70
2019-05-23T10:56:23.177Z,19.87
2019-05-23T10:58:53.726Z,20.04
2019-05-23T11:01:24.852Z,20.09
2019-05-23T11:03:55.577Z,19.85
2019-05-23T11:06:26.925Z,19.99
2019-05-23T11:08:57.749Z,19.92
2019-05-23T11:11:28.598Z,20.59
2019-05-23T11:13:59.659Z,21.19
2019-05-23T11:16:30.751Z,20.60
2019-05-23T11:19:01.826Z,20.97
2019-05-23T11:21:33.251Z,20.43
2019-05-23T11:24:06.135Z,20.54
2019-05-23T11:26:38.720Z,21.31
2019-05-23T11:29:09.736Z,21.20
2019-05-23T11:31:40.610Z,21.85
2019-05-23T11:34:11.422Z,21.85
2019-05-23T11:36:42.605Z,20.94
2019-05-23T11:39:15.554Z,20.94
2019-05-23T11:41:47.112Z,21.08
2019-05-23T11:44:18.150Z,21.04
2019-05-23T11:46:49.963Z,21.21
2019-05-23T11:49:22.151Z,20.44
2019-05-23T11:51:52.908Z,21.00
2019-05-23T11:54:24.657Z,20.17
2019-05-23T11:56:56.113Z,19.92
2019-05-23T11:59:26.751Z,20.62
2019-05-23T12:02:13.144Z,20.20
2019-05-23T12:04:44.803Z,20.03
2019-05-23T12:07:19.959Z,20.43
2019-05-23T12:09:50.798Z,20.04
2019-05-23T12:12:22.021Z,20.63
2019-05-23T12:14:53.916Z,20.88
2019-05-23T12:17:26.864Z,20.69
2019-05-23T12:19:58.267Z,20.09
2019-05-23T12:22:29.613Z,20.21
2019-05-23T12:25:19.963Z,20.97
2019-05-23T12:27:34.207Z,21.21
2019-05-23T12:30:12.309Z,21.06
2019-05-23T12:32:43.867Z,20.94
2019-05-23T12:35:16.544Z,20.94
2019-05-23T12:37:48.204Z,21.10
2019-05-23T12:40:22.623Z,20.89
2019-05-23T12:42:53.592Z,20.64
2019-05-23T12:45:24.493Z,21.07
2019-05-23T12:47:57.305Z,21.29
2019-05-23T12:50:53.749Z,21.11
2019-05-23T12:53:23.145Z,21.11
2019-05-23T12:55:53.860Z,21.12
2019-05-23T12:58:25.716Z,21.03
2019-05-23T13:01:04.030Z,21.51
2019-05-23T13:03:35.480Z,21.75
2019-05-23T13:06:06.937Z,21.30
2019-05-23T13:08:38.687Z,21.30
2019-05-23T13:11:09.934Z,21.43
2019-05-23T13:13:40.667Z,21.46
2019-05-23T13:16:12.525Z,21.62
2019-05-23T13:18:43.373Z,21.72
2019-05-23T13:21:15.029Z,22.06
2019-05-23T13:23:46.173Z,21.58
2019-05-23T13:26:17.208Z,22.09
2019-05-23T13:28:48.035Z,21.33
2019-05-23T13:31:19.185Z,21.33
2019-05-23T13:33:50.017Z,21.40
2019-05-23T13:36:20.851Z,22.11
2019-05-23T13:38:52.214Z,22.11
2019-05-23T13:41:23.654Z,21.38
2019-05-23T13:43:54.588Z,21.54
2019-05-23T13:46:25.730Z,21.97
2019-05-23T13:48:56.984Z,22.36
2019-05-23T13:51:28.037Z,22.36
2019-05-23T13:53:59.579Z,22.40
2019-05-23T13:56:30.726Z,22.33
2019-05-23T13:59:03.239Z,22.06
2019-05-23T14:01:37.107Z,22.24
2019-05-23T14:04:09.583Z,22.24
2019-05-23T14:06:40.532Z,22.43
2019-05-23T14:09:11.777Z,22.35
2019-05-23T14:11:43.017Z,21.97
2019-05-23T14:14:14.156Z,22.18
2019-05-23T14:17:03.831Z,22.06
2019-05-23T14:19:35.000Z,21.86
2019-05-23T14:22:06.422Z,21.99
2019-05-23T14:24:38.002Z,21.87
2019-05-23T14:27:30.937Z,21.82
2019-05-23T14:30:11.069Z,21.88
2019-05-23T14:32:41.824Z,21.96
2019-05-23T14:35:15.490Z,22.00
2019-05-23T14:37:48.629Z,21.81
2019-05-23T14:40:21.808Z,21.60
2019-05-23T14:43:08.046Z,21.68
2019-05-23T14:45:46.056Z,21.46
2019-05-23T14:48:22.579Z,21.60
2019-05-23T14:50:56.391Z,21.39
2019-05-23T14:53:33.050Z,21.25
2019-05-23T14:56:05.426Z,21.35
2019-05-23T14:58:37.168Z,21.28
2019-05-23T15:01:10.167Z,21.57
2019-05-23T15:03:42.162Z,21.50
2019-05-23T15:06:15.934Z,21.72
2019-05-23T15:08:51.631Z,21.71
2019-05-23T15:11:21.005Z,21.61
2019-05-23T15:13:52.898Z,21.48
2019-05-23T15:16:24.605Z,21.23
2019-05-23T15:18:56.743Z,20.88
2019-05-23T15:21:28.382Z,20.86
2019-05-23T15:23:59.983Z,20.72
2019-05-23T15:26:32.492Z,20.59
2019-05-23T15:29:05.050Z,20.59
2019-05-23T15:31:38.229Z,20.64
2019-05-23T15:34:10.703Z,20.56
2019-05-23T15:36:43.395Z,20.59
2019-05-23T15:39:15.467Z,20.52
2019-05-23T15:41:49.672Z,20.50
2019-05-23T15:44:26.516Z,20.50
2019-05-23T15:46:54.852Z,20.45
2019-05-23T15:49:26.775Z,20.49
2019-05-23T15:52:09.691Z,20.48
2019-05-23T15:54:49.098Z,20.50
2019-05-23T15:57:24.887Z,20.45
2019-05-23T15:59:58.591Z,20.56
2019-05-23T16:02:31.976Z,20.56
2019-05-23T16:05:05.591Z,20.54
2019-05-23T16:07:37.144Z,20.49
2019-05-23T16:10:10.459Z,20.51
2019-05-23T16:12:42.508Z,20.53
2019-05-23T16:15:14.262Z,20.58
2019-05-23T16:17:47.965Z,20.57
2019-05-23T16:20:27.056Z,20.53
2019-05-23T16:23:01.300Z,20.58
2019-05-23T16:25:33.418Z,20.60
2019-05-23T16:28:06.846Z,20.45
2019-05-23T16:30:40.368Z,20.43
2019-05-23T16:33:12.107Z,20.49
2019-05-23T16:35:47.669Z,20.51
2019-05-23T16:38:19.219Z,20.34
2019-05-23T16:40:52.653Z,20.31
2019-05-23T16:43:24.430Z,20.20
2019-05-23T16:46:10.537Z,19.90
2019-05-23T16:48:43.564Z,19.80
2019-05-23T16:51:15.218Z,19.62
2019-05-23T16:53:47.172Z,19.61
2019-05-23T16:56:23.107Z,19.47
2019-05-23T16:59:13.120Z,19.35
2019-05-23T17:01:55.971Z,19.23
2019-05-23T17:04:24.450Z,19.06
2019-05-23T17:07:12.961Z,19.06
2019-05-23T17:10:06.004Z,18.90
2019-05-23T17:12:30.197Z,18.72
2019-05-23T17:15:19.878Z,18.60
2019-05-23T17:18:10.844Z,18.56
2019-05-23T17:21:02.110Z,18.49
2019-05-23T17:23:50.656Z,18.36
2019-05-23T17:26:24.299Z,18.17
2019-05-23T17:29:02.154Z,18.07
2019-05-23T17:31:35.655Z,18.01
2019-05-23T17:34:16.694Z,17.83
2019-05-23T17:36:51.577Z,17.76
2019-05-23T17:39:24.279Z,17.69
2019-05-23T17:41:58.371Z,17.45
2019-05-23T17:44:30.212Z,17.27
2019-05-23T17:47:02.071Z,17.19
2019-05-23T17:49:36.711Z,17.09
2019-05-23T17:52:11.634Z,16.94
2019-05-23T17:54:44.028Z,16.98
2019-05-23T17:57:16.313Z,16.80
2019-05-23T17:59:48.486Z,16.74
2019-05-23T18:02:21.484Z,16.68
2019-05-23T18:04:52.978Z,16.60
2019-05-23T18:07:25.493Z,16.54
2019-05-23T18:09:58.344Z,16.49
2019-05-23T18:12:31.649Z,16.44
2019-05-23T18:15:04.855Z,16.43
2019-05-23T18:17:38.678Z,16.34
2019-05-23T18:20:12.105Z,16.28
2019-05-23T18:22:44.707Z,16.24
2019-05-23T18:25:18.002Z,16.24
2019-05-23T18:27:50.368Z,16.34
2019-05-23T18:30:34.010Z,16.33
2019-05-23T18:33:07.100Z,16.32
2019-05-23T18:35:41.307Z,16.27
2019-05-23T18:38:13.242Z,16.45
2019-05-23T18:41:01.743Z,16.45
2019-05-23T18:43:18.838Z,16.46
2019-05-23T18:45:52.439Z,16.55
2019-05-23T18:48:25.024Z,16.54
2019-05-23T18:50:59.650Z,16.50
2019-05-23T18:53:34.884Z,16.50
2019-05-23T18:56:08.289Z,16.35
2019-05-23T18:58:40.747Z,16.35
2019-05-23T19:01:14.261Z,16.30
2019-05-23T19:03:50.935Z,16.18
2019-05-23T19:06:26.021Z,16.04
2019-05-23T19:09:03.424Z,16.21
2019-05-23T19:11:41.962Z,16.38
2019-05-23T19:14:15.679Z,16.32
2019-05-23T19:16:47.931Z,16.30
2019-05-23T19:19:20.269Z,16.38
2019-05-23T19:21:52.795Z,16.36
2019-05-23T19:24:24.681Z,16.36
2019-05-23T19:26:57.276Z,16.44
2019-05-23T19:29:30.831Z,16.28
2019-05-23T19:32:07.656Z,16.26
2019-05-23T19:37:38.225Z,16.36
2019-05-23T19:40:24.876Z,16.34
2019-05-23T19:43:11.723Z,16.44
2019-05-23T19:45:54.096Z,16.37
2019-05-23T19:48:37.558Z,16.34
2019-05-23T19:51:21.478Z,16.30
2019-05-23T19:53:53.714Z,16.27
2019-05-23T19:56:28.934Z,16.33
2019-05-23T19:59:13.792Z,16.36
2019-05-23T20:01:57.959Z,16.34
2019-05-23T20:04:40.706Z,16.27
2019-05-23T20:07:15.525Z,16.30
2019-05-23T20:09:51.483Z,16.39
2019-05-23T20:12:29.834Z,16.37
2019-05-23T20:15:03.438Z,16.44
2019-05-23T20:17:39.385Z,16.45
2019-05-23T20:20:14.332Z,16.68
2019-05-23T20:22:49.011Z,16.69
2019-05-23T20:25:26.628Z,16.63
2019-05-23T20:27:59.944Z,16.57
2019-05-23T20:30:46.343Z,16.47
2019-05-23T20:33:20.218Z,16.60
2019-05-23T20:35:53.307Z,16.53
2019-05-23T20:38:25.577Z,16.57
2019-05-23T20:40:58.676Z,16.62
2019-05-23T20:43:30.884Z,16.67
2019-05-23T20:46:03.665Z,16.63
2019-05-23T20:48:37.089Z,16.55
2019-05-23T20:51:10.368Z,16.58
2019-05-23T20:53:42.349Z,16.57
2019-05-23T20:56:14.116Z,16.57
2019-05-23T20:58:46.271Z,16.52
2019-05-23T21:01:22.847Z,16.56
2019-05-23T21:03:55.418Z,16.54
2019-05-23T21:06:27.788Z,16.59
2019-05-23T21:09:01.801Z,16.68
2019-05-23T21:11:34.334Z,16.60
2019-05-23T21:14:06.544Z,16.63
2019-05-23T21:16:41.738Z,16.68
2019-05-23T21:19:14.267Z,16.55
2019-05-23T21:21:47.246Z,16.46
2019-05-23T21:24:18.772Z,16.49
2019-05-23T21:26:50.352Z,16.43
2019-05-23T21:29:22.364Z,16.46
2019-05-23T21:31:55.403Z,16.56
2019-05-23T21:34:29.723Z,16.57
2019-05-23T21:37:02.110Z,16.54
2019-05-23T21:39:34.538Z,16.55
2019-05-23T21:42:06.431Z,16.54
2019-05-23T21:44:38.391Z,16.47
2019-05-23T21:47:10.796Z,16.38
2019-05-23T21:49:42.747Z,16.28
2019-05-23T21:52:15.531Z,16.28
2019-05-23T21:54:47.680Z,16.26
2019-05-23T21:57:19.762Z,16.14
2019-05-23T21:59:51.632Z,16.01
2019-05-23T22:02:25.184Z,16.06
2019-05-23T22:04:58.501Z,16.15
2019-05-23T22:07:30.793Z,16.14
2019-05-23T22:10:02.861Z,16.11
2019-05-23T22:12:35.052Z,16.01
2019-05-23T22:15:07.900Z,16.04
2019-05-23T22:17:41.292Z,16.09
2019-05-23T22:20:13.772Z,16.13
2019-05-23T22:22:45.753Z,16.14
2019-05-23T22:25:20.779Z,16.10
2019-05-23T22:27:52.595Z,16.01
2019-05-23T22:30:24.265Z,15.80
2019-05-23T22:32:56.388Z,15.82
2019-05-23T22:35:29.324Z,15.84
2019-05-23T22:38:01.078Z,15.84
2019-05-23T22:40:33.141Z,15.79
2019-05-23T22:43:20.215Z,15.96
2019-05-23T22:45:39.260Z,16.01
2019-05-23T22:48:10.981Z,15.97
2019-05-23T22:50:43.053Z,15.97
2019-05-23T22:53:14.952Z,15.88
2019-05-23T22:55:48.186Z,15.96
2019-05-23T22:58:19.741Z,15.90
2019-05-23T23:00:51.829Z,15.83
2019-05-23T23:03:23.987Z,15.84
2019-05-23T23:05:57.279Z,15.77
2019-05-23T23:08:30.383Z,15.60
2019-05-23T23:11:02.225Z,15.72
2019-05-23T23:13:38.781Z,15.69
2019-05-23T23:16:09.151Z,15.93
2019-05-23T23:18:41.485Z,16.00
2019-05-23T23:21:13.348Z,15.99
2019-05-23T23:23:45.205Z,16.16
2019-05-23T23:26:17.170Z,16.08
2019-05-23T23:28:50.175Z,16.17
2019-05-23T23:31:22.426Z,16.24
2019-05-23T23:33:55.368Z,16.37
2019-05-23T23:36:28.497Z,16.27
2019-05-23T23:39:00.666Z,16.33
2019-05-23T23:41:32.527Z,16.32
2019-05-23T23:44:05.619Z,16.31
2019-05-23T23:46:56.830Z,16.27
2019-05-23T23:49:46.710Z,16.21
2019-05-23T23:52:37.317Z,16.07
2019-05-23T23:55:28.331Z,15.93
2019-05-23T23:58:01.342Z,16.01
